sensor_id;sensor_type;location;lat;lon;timestamp;P1;durP1;ratioP1;P2;durP2;ratioP2
35602;SDS011;21725;50.836;4.368;2022-11-30T00:02:25;28.33;;;15.00;;
35602;SDS011;21725;50.836;4.368;2022-11-30T00:04:54;21.65;;;14.15;;
35602;SDS011;21725;50.836;4.368;2022-11-30T00:07:19;21.48;;;13.75;;
35602;SDS011;21725;50.836;4.368;2022-11-30T00:09:45;20.63;;;13.80;;
35602;SDS011;21725;50.836;4.368;2022-11-30T00:12:14;19.08;;;12.77;;
35602;SDS011;21725;50.836;4.368;2022-11-30T00:14:39;21.13;;;13.50;;
35602;SDS011;21725;50.836;4.368;2022-11-30T00:17:05;22.48;;;12.43;;
35602;SDS011;21725;50.836;4.368;2022-11-30T00:19:30;20.27;;;13.43;;
35602;SDS011;21725;50.836;4.368;2022-11-30T00:21:56;22.48;;;14.18;;
35602;SDS011;21725;50.836;4.368;2022-11-30T00:24:25;19.05;;;11.93;;
35602;SDS011;21725;50.836;4.368;2022-11-30T00:26:50;17.07;;;10.43;;
35602;SDS011;21725;50.836;4.368;2022-11-30T00:29:16;18.15;;;11.85;;
35602;SDS011;21725;50.836;4.368;2022-11-30T00:31:41;16.45;;;10.60;;
35602;SDS011;21725;50.836;4.368;2022-11-30T00:34:07;15.27;;;10.48;;
35602;SDS011;21725;50.836;4.368;2022-11-30T00:36:33;28.20;;;12.38;;
35602;SDS011;21725;50.836;4.368;2022-11-30T00:38:59;16.95;;;11.75;;
35602;SDS011;21725;50.836;4.368;2022-11-30T00:41:24;21.85;;;13.18;;
35602;SDS011;21725;50.836;4.368;2022-11-30T00:43:50;19.08;;;11.88;;
35602;SDS011;21725;50.836;4.368;2022-11-30T00:46:16;20.17;;;13.40;;
35602;SDS011;21725;50.836;4.368;2022-11-30T00:48:42;17.85;;;11.10;;
35602;SDS011;21725;50.836;4.368;2022-11-30T00:51:08;19.55;;;13.80;;
35602;SDS011;21725;50.836;4.368;2022-11-30T00:53:35;17.15;;;11.13;;
35602;SDS011;21725;50.836;4.368;2022-11-30T00:56:01;22.05;;;14.07;;
35602;SDS011;21725;50.836;4.368;2022-11-30T00:58:27;23.17;;;14.52;;
35602;SDS011;21725;50.836;4.368;2022-11-30T01:00:53;23.25;;;12.50;;
35602;SDS011;21725;50.836;4.368;2022-11-30T01:03:18;23.30;;;13.02;;
35602;SDS011;21725;50.836;4.368;2022-11-30T01:05:44;23.67;;;12.63;;
35602;SDS011;21725;50.836;4.368;2022-11-30T01:08:10;22.05;;;13.73;;
35602;SDS011;21725;50.836;4.368;2022-11-30T01:10:37;24.15;;;14.32;;
35602;SDS011;21725;50.836;4.368;2022-11-30T01:13:04;20.60;;;12.88;;
35602;SDS011;21725;50.836;4.368;2022-11-30T01:15:33;23.58;;;14.10;;
35602;SDS011;21725;50.836;4.368;2022-11-30T01:18:00;21.77;;;13.30;;
35602;SDS011;21725;50.836;4.368;2022-11-30T01:20:26;22.02;;;14.60;;
35602;SDS011;21725;50.836;4.368;2022-11-30T01:22:51;22.83;;;14.75;;
35602;SDS011;21725;50.836;4.368;2022-11-30T01:25:19;25.02;;;15.68;;
35602;SDS011;21725;50.836;4.368;2022-11-30T01:27:47;25.10;;;15.35;;
35602;SDS011;21725;50.836;4.368;2022-11-30T01:30:13;24.88;;;14.40;;
35602;SDS011;21725;50.836;4.368;2022-11-30T01:32:39;27.50;;;15.70;;
35602;SDS011;21725;50.836;4.368;2022-11-30T01:35:04;24.38;;;14.75;;
35602;SDS011;21725;50.836;4.368;2022-11-30T01:37:30;26.33;;;14.77;;
35602;SDS011;21725;50.836;4.368;2022-11-30T01:39:56;24.30;;;13.73;;
35602;SDS011;21725;50.836;4.368;2022-11-30T01:42:22;28.67;;;14.70;;
35602;SDS011;21725;50.836;4.368;2022-11-30T01:44:55;23.85;;;14.35;;
35602;SDS011;21725;50.836;4.368;2022-11-30T01:47:26;26.80;;;15.43;;
35602;SDS011;21725;50.836;4.368;2022-11-30T01:50:12;22.05;;;13.05;;
35602;SDS011;21725;50.836;4.368;2022-11-30T01:52:45;21.55;;;14.38;;
35602;SDS011;21725;50.836;4.368;2022-11-30T01:57:50;21.30;;;11.87;;
35602;SDS011;21725;50.836;4.368;2022-11-30T02:00:20;25.90;;;15.02;;
35602;SDS011;21725;50.836;4.368;2022-11-30T02:05:40;30.77;;;16.88;;
35602;SDS011;21725;50.836;4.368;2022-11-30T02:08:06;26.27;;;14.73;;
35602;SDS011;21725;50.836;4.368;2022-11-30T02:10:34;26.92;;;15.52;;
35602;SDS011;21725;50.836;4.368;2022-11-30T02:16:17;26.13;;;14.93;;
35602;SDS011;21725;50.836;4.368;2022-11-30T02:24:18;29.30;;;16.15;;
35602;SDS011;21725;50.836;4.368;2022-11-30T02:27:21;30.00;;;16.88;;
35602;SDS011;21725;50.836;4.368;2022-11-30T02:30:02;28.60;;;15.48;;
35602;SDS011;21725;50.836;4.368;2022-11-30T02:32:35;30.00;;;17.83;;
35602;SDS011;21725;50.836;4.368;2022-11-30T02:35:08;29.27;;;17.48;;
35602;SDS011;21725;50.836;4.368;2022-11-30T02:37:36;29.73;;;16.50;;
35602;SDS011;21725;50.836;4.368;2022-11-30T02:40:09;31.65;;;16.65;;
35602;SDS011;21725;50.836;4.368;2022-11-30T02:42:38;33.30;;;17.67;;
35602;SDS011;21725;50.836;4.368;2022-11-30T02:45:04;35.35;;;18.48;;
35602;SDS011;21725;50.836;4.368;2022-11-30T02:52:48;37.83;;;19.33;;
35602;SDS011;21725;50.836;4.368;2022-11-30T02:55:15;38.30;;;17.40;;
35602;SDS011;21725;50.836;4.368;2022-11-30T02:57:43;43.13;;;19.95;;
35602;SDS011;21725;50.836;4.368;2022-11-30T03:00:09;42.97;;;19.17;;
35602;SDS011;21725;50.836;4.368;2022-11-30T03:02:36;33.50;;;18.65;;
35602;SDS011;21725;50.836;4.368;2022-11-30T03:05:03;35.08;;;19.80;;
35602;SDS011;21725;50.836;4.368;2022-11-30T03:07:29;35.28;;;18.10;;
35602;SDS011;21725;50.836;4.368;2022-11-30T03:09:55;37.10;;;17.48;;
35602;SDS011;21725;50.836;4.368;2022-11-30T03:12:21;38.88;;;18.92;;
35602;SDS011;21725;50.836;4.368;2022-11-30T03:14:47;40.53;;;19.30;;
35602;SDS011;21725;50.836;4.368;2022-11-30T03:17:12;35.35;;;18.83;;
35602;SDS011;21725;50.836;4.368;2022-11-30T03:19:38;41.38;;;19.02;;
35602;SDS011;21725;50.836;4.368;2022-11-30T03:22:04;45.08;;;21.67;;
35602;SDS011;21725;50.836;4.368;2022-11-30T03:24:29;36.88;;;18.95;;
35602;SDS011;21725;50.836;4.368;2022-11-30T03:26:55;41.47;;;20.45;;
35602;SDS011;21725;50.836;4.368;2022-11-30T03:29:21;53.33;;;23.15;;
35602;SDS011;21725;50.836;4.368;2022-11-30T03:31:46;37.35;;;19.25;;
35602;SDS011;21725;50.836;4.368;2022-11-30T03:34:12;49.60;;;21.23;;
35602;SDS011;21725;50.836;4.368;2022-11-30T03:36:38;49.13;;;20.50;;
35602;SDS011;21725;50.836;4.368;2022-11-30T03:39:03;59.47;;;22.20;;
35602;SDS011;21725;50.836;4.368;2022-11-30T03:41:29;51.25;;;21.05;;
35602;SDS011;21725;50.836;4.368;2022-11-30T03:43:55;65.75;;;21.48;;
35602;SDS011;21725;50.836;4.368;2022-11-30T03:46:21;43.50;;;20.77;;
35602;SDS011;21725;50.836;4.368;2022-11-30T03:48:51;46.60;;;17.88;;
35602;SDS011;21725;50.836;4.368;2022-11-30T03:51:17;43.50;;;20.67;;
35602;SDS011;21725;50.836;4.368;2022-11-30T03:53:43;58.10;;;20.85;;
35602;SDS011;21725;50.836;4.368;2022-11-30T03:56:09;99.50;;;22.42;;
35602;SDS011;21725;50.836;4.368;2022-11-30T03:58:36;48.05;;;20.80;;
35602;SDS011;21725;50.836;4.368;2022-11-30T04:03:29;51.80;;;20.08;;
35602;SDS011;21725;50.836;4.368;2022-11-30T04:05:56;53.83;;;20.92;;
35602;SDS011;21725;50.836;4.368;2022-11-30T04:08:22;49.70;;;22.85;;
35602;SDS011;21725;50.836;4.368;2022-11-30T04:10:52;41.72;;;18.73;;
35602;SDS011;21725;50.836;4.368;2022-11-30T04:13:19;41.55;;;21.08;;
35602;SDS011;21725;50.836;4.368;2022-11-30T04:15:46;38.33;;;17.70;;
35602;SDS011;21725;50.836;4.368;2022-11-30T04:18:12;45.22;;;21.38;;
35602;SDS011;21725;50.836;4.368;2022-11-30T04:20:39;52.47;;;22.52;;
35602;SDS011;21725;50.836;4.368;2022-11-30T04:23:05;65.22;;;23.83;;
35602;SDS011;21725;50.836;4.368;2022-11-30T04:25:30;52.88;;;23.42;;
35602;SDS011;21725;50.836;4.368;2022-11-30T04:27:56;54.63;;;23.38;;
35602;SDS011;21725;50.836;4.368;2022-11-30T04:30:22;55.90;;;22.58;;
35602;SDS011;21725;50.836;4.368;2022-11-30T04:32:48;58.85;;;24.08;;
35602;SDS011;21725;50.836;4.368;2022-11-30T04:35:14;102.47;;;24.52;;
35602;SDS011;21725;50.836;4.368;2022-11-30T04:37:39;55.38;;;24.90;;
35602;SDS011;21725;50.836;4.368;2022-11-30T04:40:05;50.17;;;22.77;;
35602;SDS011;21725;50.836;4.368;2022-11-30T04:42:32;53.40;;;22.35;;
35602;SDS011;21725;50.836;4.368;2022-11-30T04:44:58;55.72;;;21.67;;
35602;SDS011;21725;50.836;4.368;2022-11-30T04:47:24;39.67;;;21.35;;
35602;SDS011;21725;50.836;4.368;2022-11-30T04:49:50;41.35;;;20.02;;
35602;SDS011;21725;50.836;4.368;2022-11-30T04:52:15;41.88;;;20.08;;
35602;SDS011;21725;50.836;4.368;2022-11-30T04:54:41;38.85;;;21.05;;
35602;SDS011;21725;50.836;4.368;2022-11-30T04:57:07;47.25;;;21.05;;
35602;SDS011;21725;50.836;4.368;2022-11-30T04:59:33;59.05;;;22.08;;
35602;SDS011;21725;50.836;4.368;2022-11-30T05:01:59;48.67;;;20.70;;
35602;SDS011;21725;50.836;4.368;2022-11-30T05:25:53;50.40;;;24.00;;
35602;SDS011;21725;50.836;4.368;2022-11-30T05:28:19;59.80;;;24.45;;
35602;SDS011;21725;50.836;4.368;2022-11-30T05:30:44;52.15;;;21.77;;
35602;SDS011;21725;50.836;4.368;2022-11-30T05:33:10;43.25;;;20.58;;
35602;SDS011;21725;50.836;4.368;2022-11-30T05:35:36;57.30;;;25.30;;
35602;SDS011;21725;50.836;4.368;2022-11-30T05:38:02;63.17;;;26.02;;
35602;SDS011;21725;50.836;4.368;2022-11-30T05:40:28;60.53;;;24.10;;
35602;SDS011;21725;50.836;4.368;2022-11-30T05:42:57;51.95;;;24.10;;
35602;SDS011;21725;50.836;4.368;2022-11-30T05:45:24;68.60;;;23.25;;
35602;SDS011;21725;50.836;4.368;2022-11-30T05:47:50;60.92;;;25.85;;
35602;SDS011;21725;50.836;4.368;2022-11-30T05:50:16;52.67;;;24.83;;
35602;SDS011;21725;50.836;4.368;2022-11-30T05:52:41;54.13;;;23.50;;
35602;SDS011;21725;50.836;4.368;2022-11-30T05:55:07;54.55;;;23.20;;
35602;SDS011;21725;50.836;4.368;2022-11-30T05:57:36;50.05;;;24.33;;
35602;SDS011;21725;50.836;4.368;2022-11-30T06:00:06;52.00;;;22.73;;
35602;SDS011;21725;50.836;4.368;2022-11-30T06:02:33;54.88;;;24.05;;
35602;SDS011;21725;50.836;4.368;2022-11-30T06:04:59;55.70;;;22.75;;
35602;SDS011;21725;50.836;4.368;2022-11-30T06:07:25;49.42;;;21.83;;
35602;SDS011;21725;50.836;4.368;2022-11-30T06:09:51;46.88;;;22.08;;
35602;SDS011;21725;50.836;4.368;2022-11-30T06:12:16;41.45;;;20.88;;
35602;SDS011;21725;50.836;4.368;2022-11-30T06:14:42;43.45;;;22.17;;
35602;SDS011;21725;50.836;4.368;2022-11-30T06:17:08;41.78;;;20.77;;
35602;SDS011;21725;50.836;4.368;2022-11-30T06:19:33;35.55;;;17.98;;
35602;SDS011;21725;50.836;4.368;2022-11-30T06:21:59;38.33;;;18.80;;
35602;SDS011;21725;50.836;4.368;2022-11-30T06:24:25;43.20;;;22.27;;
35602;SDS011;21725;50.836;4.368;2022-11-30T06:26:50;41.53;;;20.33;;
35602;SDS011;21725;50.836;4.368;2022-11-30T06:29:16;43.83;;;22.75;;
35602;SDS011;21725;50.836;4.368;2022-11-30T06:31:42;52.65;;;19.83;;
35602;SDS011;21725;50.836;4.368;2022-11-30T06:34:08;43.65;;;20.70;;
35602;SDS011;21725;50.836;4.368;2022-11-30T06:36:33;46.80;;;21.98;;
35602;SDS011;21725;50.836;4.368;2022-11-30T06:38:59;45.45;;;21.67;;
35602;SDS011;21725;50.836;4.368;2022-11-30T06:41:25;41.60;;;21.05;;
35602;SDS011;21725;50.836;4.368;2022-11-30T06:43:51;45.42;;;22.25;;
35602;SDS011;21725;50.836;4.368;2022-11-30T06:46:16;45.55;;;21.38;;
35602;SDS011;21725;50.836;4.368;2022-11-30T06:48:42;51.65;;;22.70;;
35602;SDS011;21725;50.836;4.368;2022-11-30T06:51:11;33.33;;;16.98;;
35602;SDS011;21725;50.836;4.368;2022-11-30T06:53:37;44.05;;;20.63;;
35602;SDS011;21725;50.836;4.368;2022-11-30T06:56:06;47.63;;;24.30;;
35602;SDS011;21725;50.836;4.368;2022-11-30T07:00:58;45.38;;;22.65;;
35602;SDS011;21725;50.836;4.368;2022-11-30T07:03:24;45.33;;;22.42;;
35602;SDS011;21725;50.836;4.368;2022-11-30T07:05:49;47.20;;;21.83;;
35602;SDS011;21725;50.836;4.368;2022-11-30T07:08:18;47.80;;;21.55;;
35602;SDS011;21725;50.836;4.368;2022-11-30T07:10:44;40.70;;;20.13;;
35602;SDS011;21725;50.836;4.368;2022-11-30T07:13:17;39.70;;;20.40;;
35602;SDS011;21725;50.836;4.368;2022-11-30T07:15:44;37.50;;;20.13;;
35602;SDS011;21725;50.836;4.368;2022-11-30T07:18:10;36.33;;;20.52;;
35602;SDS011;21725;50.836;4.368;2022-11-30T07:20:36;39.75;;;21.17;;
35602;SDS011;21725;50.836;4.368;2022-11-30T07:23:02;35.92;;;19.95;;
35602;SDS011;21725;50.836;4.368;2022-11-30T07:25:50;44.13;;;21.38;;
35602;SDS011;21725;50.836;4.368;2022-11-30T07:28:33;39.13;;;20.70;;
35602;SDS011;21725;50.836;4.368;2022-11-30T07:31:12;42.50;;;22.55;;
35602;SDS011;21725;50.836;4.368;2022-11-30T07:33:38;43.40;;;21.77;;
35602;SDS011;21725;50.836;4.368;2022-11-30T07:36:04;46.03;;;20.67;;
35602;SDS011;21725;50.836;4.368;2022-11-30T07:38:30;36.10;;;20.30;;
35602;SDS011;21725;50.836;4.368;2022-11-30T07:40:56;37.50;;;19.63;;
35602;SDS011;21725;50.836;4.368;2022-11-30T07:43:26;32.17;;;18.92;;
35602;SDS011;21725;50.836;4.368;2022-11-30T07:45:52;43.05;;;23.35;;
35602;SDS011;21725;50.836;4.368;2022-11-30T07:48:18;51.72;;;23.05;;
35602;SDS011;21725;50.836;4.368;2022-11-30T07:50:45;49.15;;;23.85;;
35602;SDS011;21725;50.836;4.368;2022-11-30T07:53:11;47.13;;;24.70;;
35602;SDS011;21725;50.836;4.368;2022-11-30T07:55:36;48.30;;;22.67;;
35602;SDS011;21725;50.836;4.368;2022-11-30T07:58:02;48.55;;;22.80;;
35602;SDS011;21725;50.836;4.368;2022-11-30T08:00:31;45.25;;;22.70;;
35602;SDS011;21725;50.836;4.368;2022-11-30T08:02:57;51.43;;;23.70;;
35602;SDS011;21725;50.836;4.368;2022-11-30T08:05:22;42.40;;;22.15;;
35602;SDS011;21725;50.836;4.368;2022-11-30T08:07:52;46.15;;;23.35;;
35602;SDS011;21725;50.836;4.368;2022-11-30T08:10:18;47.63;;;22.65;;
35602;SDS011;21725;50.836;4.368;2022-11-30T08:12:45;44.05;;;22.10;;
35602;SDS011;21725;50.836;4.368;2022-11-30T08:15:11;68.60;;;40.90;;
35602;SDS011;21725;50.836;4.368;2022-11-30T08:17:37;43.78;;;23.88;;
35602;SDS011;21725;50.836;4.368;2022-11-30T08:20:03;54.25;;;25.00;;
35602;SDS011;21725;50.836;4.368;2022-11-30T08:22:30;45.17;;;22.38;;
35602;SDS011;21725;50.836;4.368;2022-11-30T08:24:56;52.10;;;23.77;;
35602;SDS011;21725;50.836;4.368;2022-11-30T08:27:22;37.78;;;19.45;;
35602;SDS011;21725;50.836;4.368;2022-11-30T08:29:48;37.92;;;18.50;;
35602;SDS011;21725;50.836;4.368;2022-11-30T08:32:14;35.33;;;19.30;;
35602;SDS011;21725;50.836;4.368;2022-11-30T08:34:39;55.15;;;28.83;;
35602;SDS011;21725;50.836;4.368;2022-11-30T08:37:05;40.42;;;22.10;;
35602;SDS011;21725;50.836;4.368;2022-11-30T08:39:31;37.58;;;20.00;;
35602;SDS011;21725;50.836;4.368;2022-11-30T08:41:58;33.63;;;18.95;;
35602;SDS011;21725;50.836;4.368;2022-11-30T08:44:27;36.80;;;18.02;;
35602;SDS011;21725;50.836;4.368;2022-11-30T08:46:56;41.17;;;21.48;;
35602;SDS011;21725;50.836;4.368;2022-11-30T08:49:21;37.50;;;20.13;;
35602;SDS011;21725;50.836;4.368;2022-11-30T08:51:51;33.70;;;19.42;;
35602;SDS011;21725;50.836;4.368;2022-11-30T08:54:18;35.72;;;21.50;;
35602;SDS011;21725;50.836;4.368;2022-11-30T08:56:44;38.28;;;21.23;;
35602;SDS011;21725;50.836;4.368;2022-11-30T08:59:12;34.92;;;20.95;;
35602;SDS011;21725;50.836;4.368;2022-11-30T09:01:38;38.42;;;19.40;;
35602;SDS011;21725;50.836;4.368;2022-11-30T09:04:06;76.78;;;44.25;;
35602;SDS011;21725;50.836;4.368;2022-11-30T09:06:32;62.20;;;31.25;;
35602;SDS011;21725;50.836;4.368;2022-11-30T09:08:58;46.10;;;25.30;;
35602;SDS011;21725;50.836;4.368;2022-11-30T09:11:24;50.20;;;29.42;;
35602;SDS011;21725;50.836;4.368;2022-11-30T09:13:52;44.75;;;22.75;;
35602;SDS011;21725;50.836;4.368;2022-11-30T09:16:20;35.75;;;20.80;;
35602;SDS011;21725;50.836;4.368;2022-11-30T09:18:47;41.45;;;22.00;;
35602;SDS011;21725;50.836;4.368;2022-11-30T09:21:14;43.80;;;23.15;;
35602;SDS011;21725;50.836;4.368;2022-11-30T09:23:41;43.40;;;23.45;;
35602;SDS011;21725;50.836;4.368;2022-11-30T09:26:08;44.22;;;21.52;;
35602;SDS011;21725;50.836;4.368;2022-11-30T09:28:38;44.88;;;22.42;;
35602;SDS011;21725;50.836;4.368;2022-11-30T09:33:37;43.55;;;25.15;;
35602;SDS011;21725;50.836;4.368;2022-11-30T09:36:07;49.00;;;27.35;;
35602;SDS011;21725;50.836;4.368;2022-11-30T09:38:34;48.10;;;29.02;;
35602;SDS011;21725;50.836;4.368;2022-11-30T09:41:03;36.13;;;21.55;;
35602;SDS011;21725;50.836;4.368;2022-11-30T09:46:59;40.75;;;21.20;;
35602;SDS011;21725;50.836;4.368;2022-11-30T09:49:48;36.72;;;20.38;;
35602;SDS011;21725;50.836;4.368;2022-11-30T09:52:16;37.17;;;20.00;;
35602;SDS011;21725;50.836;4.368;2022-11-30T09:54:48;35.03;;;19.52;;
35602;SDS011;21725;50.836;4.368;2022-11-30T10:02:30;37.55;;;20.50;;
35602;SDS011;21725;50.836;4.368;2022-11-30T10:05:01;36.38;;;20.88;;
35602;SDS011;21725;50.836;4.368;2022-11-30T10:10:32;40.38;;;21.75;;
35602;SDS011;21725;50.836;4.368;2022-11-30T10:18:51;41.70;;;18.98;;
35602;SDS011;21725;50.836;4.368;2022-11-30T10:26:52;34.28;;;20.20;;
35602;SDS011;21725;50.836;4.368;2022-11-30T10:29:20;37.40;;;20.02;;
35602;SDS011;21725;50.836;4.368;2022-11-30T10:31:50;33.97;;;18.95;;
35602;SDS011;21725;50.836;4.368;2022-11-30T10:34:23;30.25;;;17.63;;
35602;SDS011;21725;50.836;4.368;2022-11-30T10:39:44;31.55;;;19.92;;
35602;SDS011;21725;50.836;4.368;2022-11-30T10:42:33;30.88;;;19.30;;
35602;SDS011;21725;50.836;4.368;2022-11-30T10:45:10;30.52;;;19.42;;
35602;SDS011;21725;50.836;4.368;2022-11-30T10:50:12;28.63;;;17.50;;
35602;SDS011;21725;50.836;4.368;2022-11-30T10:52:45;40.63;;;20.73;;
35602;SDS011;21725;50.836;4.368;2022-11-30T10:55:18;39.03;;;21.17;;
35602;SDS011;21725;50.836;4.368;2022-11-30T10:57:51;61.95;;;19.65;;
35602;SDS011;21725;50.836;4.368;2022-11-30T11:00:21;32.05;;;19.30;;
35602;SDS011;21725;50.836;4.368;2022-11-30T11:23:50;33.95;;;18.73;;
35602;SDS011;21725;50.836;4.368;2022-11-30T11:26:19;36.93;;;20.53;;
35602;SDS011;21725;50.836;4.368;2022-11-30T11:28:57;37.85;;;21.38;;
35602;SDS011;21725;50.836;4.368;2022-11-30T11:31:42;33.92;;;19.42;;
35602;SDS011;21725;50.836;4.368;2022-11-30T11:42:46;33.20;;;19.77;;
35602;SDS011;21725;50.836;4.368;2022-11-30T11:45:21;34.72;;;20.02;;
35602;SDS011;21725;50.836;4.368;2022-11-30T11:51:00;33.30;;;19.45;;
35602;SDS011;21725;50.836;4.368;2022-11-30T11:56:26;36.88;;;20.55;;
35602;SDS011;21725;50.836;4.368;2022-11-30T11:59:00;32.00;;;19.30;;
35602;SDS011;21725;50.836;4.368;2022-11-30T12:01:45;33.58;;;19.27;;
35602;SDS011;21725;50.836;4.368;2022-11-30T12:07:22;37.83;;;23.00;;
35602;SDS011;21725;50.836;4.368;2022-11-30T12:09:52;31.42;;;19.98;;
35602;SDS011;21725;50.836;4.368;2022-11-30T12:12:23;35.22;;;20.30;;
35602;SDS011;21725;50.836;4.368;2022-11-30T12:14:49;37.10;;;21.73;;
35602;SDS011;21725;50.836;4.368;2022-11-30T12:20:04;36.63;;;20.92;;
35602;SDS011;21725;50.836;4.368;2022-11-30T12:22:46;36.42;;;21.33;;
35602;SDS011;21725;50.836;4.368;2022-11-30T12:25:25;41.42;;;22.92;;
35602;SDS011;21725;50.836;4.368;2022-11-30T12:41:29;41.78;;;22.75;;
35602;SDS011;21725;50.836;4.368;2022-11-30T12:47:53;42.40;;;21.75;;
35602;SDS011;21725;50.836;4.368;2022-11-30T12:50:22;33.83;;;20.20;;
35602;SDS011;21725;50.836;4.368;2022-11-30T12:58:42;31.08;;;20.35;;
35602;SDS011;21725;50.836;4.368;2022-11-30T13:06:22;35.97;;;21.13;;
35602;SDS011;21725;50.836;4.368;2022-11-30T13:08:59;40.08;;;23.13;;
35602;SDS011;21725;50.836;4.368;2022-11-30T13:14:15;39.20;;;22.30;;
35602;SDS011;21725;50.836;4.368;2022-11-30T13:16:45;28.50;;;19.38;;
35602;SDS011;21725;50.836;4.368;2022-11-30T13:19:28;41.05;;;20.52;;
35602;SDS011;21725;50.836;4.368;2022-11-30T13:24:49;35.17;;;21.73;;
35602;SDS011;21725;50.836;4.368;2022-11-30T13:28:09;28.80;;;19.33;;
35602;SDS011;21725;50.836;4.368;2022-11-30T13:30:42;29.58;;;19.58;;
35602;SDS011;21725;50.836;4.368;2022-11-30T13:36:05;33.70;;;21.08;;
35602;SDS011;21725;50.836;4.368;2022-11-30T13:38:45;38.80;;;20.25;;
35602;SDS011;21725;50.836;4.368;2022-11-30T13:41:17;31.85;;;20.88;;
35602;SDS011;21725;50.836;4.368;2022-11-30T13:43:45;33.78;;;20.73;;
35602;SDS011;21725;50.836;4.368;2022-11-30T13:46:13;34.17;;;22.08;;
35602;SDS011;21725;50.836;4.368;2022-11-30T13:48:40;34.03;;;20.23;;
35602;SDS011;21725;50.836;4.368;2022-11-30T13:51:07;36.28;;;21.08;;
35602;SDS011;21725;50.836;4.368;2022-11-30T13:53:34;39.38;;;22.33;;
35602;SDS011;21725;50.836;4.368;2022-11-30T13:56:05;33.42;;;21.33;;
35602;SDS011;21725;50.836;4.368;2022-11-30T14:23:40;32.90;;;20.80;;
35602;SDS011;21725;50.836;4.368;2022-11-30T14:26:27;37.50;;;20.92;;
35602;SDS011;21725;50.836;4.368;2022-11-30T14:31:31;34.08;;;22.45;;
35602;SDS011;21725;50.836;4.368;2022-11-30T14:34:23;27.50;;;17.20;;
35602;SDS011;21725;50.836;4.368;2022-11-30T14:37:32;37.63;;;21.45;;
35602;SDS011;21725;50.836;4.368;2022-11-30T14:39:55;39.47;;;23.77;;
35602;SDS011;21725;50.836;4.368;2022-11-30T14:42:27;38.80;;;22.70;;
35602;SDS011;21725;50.836;4.368;2022-11-30T14:44:54;38.53;;;24.55;;
35602;SDS011;21725;50.836;4.368;2022-11-30T14:49:56;41.50;;;24.67;;
35602;SDS011;21725;50.836;4.368;2022-11-30T14:55:18;40.47;;;24.30;;
35602;SDS011;21725;50.836;4.368;2022-11-30T15:00:27;44.78;;;24.23;;
35602;SDS011;21725;50.836;4.368;2022-11-30T15:02:53;41.17;;;24.45;;
35602;SDS011;21725;50.836;4.368;2022-11-30T15:07:54;42.08;;;24.65;;
35602;SDS011;21725;50.836;4.368;2022-11-30T15:10:28;43.40;;;24.05;;
35602;SDS011;21725;50.836;4.368;2022-11-30T15:12:58;46.40;;;22.88;;
35602;SDS011;21725;50.836;4.368;2022-11-30T15:15:25;43.75;;;24.98;;
35602;SDS011;21725;50.836;4.368;2022-11-30T15:22:48;40.70;;;24.50;;
35602;SDS011;21725;50.836;4.368;2022-11-30T15:25:14;38.97;;;23.75;;
35602;SDS011;21725;50.836;4.368;2022-11-30T15:27:39;39.30;;;24.77;;
35602;SDS011;21725;50.836;4.368;2022-11-30T15:30:06;43.22;;;24.63;;
35602;SDS011;21725;50.836;4.368;2022-11-30T15:32:37;41.17;;;23.20;;
35602;SDS011;21725;50.836;4.368;2022-11-30T15:35:02;41.50;;;25.38;;
35602;SDS011;21725;50.836;4.368;2022-11-30T15:37:33;45.97;;;26.10;;
35602;SDS011;21725;50.836;4.368;2022-11-30T15:40:02;45.95;;;26.63;;
35602;SDS011;21725;50.836;4.368;2022-11-30T15:42:31;43.33;;;24.30;;
35602;SDS011;21725;50.836;4.368;2022-11-30T15:45:09;40.63;;;24.05;;
35602;SDS011;21725;50.836;4.368;2022-11-30T15:47:41;39.60;;;23.02;;
35602;SDS011;21725;50.836;4.368;2022-11-30T15:52:55;36.53;;;21.77;;
35602;SDS011;21725;50.836;4.368;2022-11-30T15:55:42;28.80;;;17.75;;
35602;SDS011;21725;50.836;4.368;2022-11-30T15:58:29;41.88;;;25.30;;
35602;SDS011;21725;50.836;4.368;2022-11-30T16:00:59;48.33;;;25.73;;
35602;SDS011;21725;50.836;4.368;2022-11-30T16:06:22;41.60;;;22.75;;
35602;SDS011;21725;50.836;4.368;2022-11-30T16:09:31;42.33;;;24.40;;
35602;SDS011;21725;50.836;4.368;2022-11-30T16:12:16;41.10;;;25.20;;
35602;SDS011;21725;50.836;4.368;2022-11-30T16:14:54;52.83;;;25.23;;
35602;SDS011;21725;50.836;4.368;2022-11-30T16:17:23;43.38;;;25.08;;
35602;SDS011;21725;50.836;4.368;2022-11-30T16:19:54;42.92;;;25.38;;
35602;SDS011;21725;50.836;4.368;2022-11-30T16:22:30;43.28;;;25.85;;
35602;SDS011;21725;50.836;4.368;2022-11-30T16:24:55;42.80;;;25.90;;
35602;SDS011;21725;50.836;4.368;2022-11-30T16:27:21;47.97;;;26.58;;
35602;SDS011;21725;50.836;4.368;2022-11-30T16:29:50;41.03;;;23.13;;
35602;SDS011;21725;50.836;4.368;2022-11-30T16:32:15;44.15;;;26.45;;
35602;SDS011;21725;50.836;4.368;2022-11-30T16:34:42;48.30;;;28.13;;
35602;SDS011;21725;50.836;4.368;2022-11-30T16:37:09;50.13;;;27.23;;
35602;SDS011;21725;50.836;4.368;2022-11-30T16:39:35;60.30;;;32.05;;
35602;SDS011;21725;50.836;4.368;2022-11-30T16:42:01;57.75;;;31.95;;
35602;SDS011;21725;50.836;4.368;2022-11-30T16:44:27;56.67;;;29.67;;
35602;SDS011;21725;50.836;4.368;2022-11-30T16:46:52;54.30;;;29.05;;
35602;SDS011;21725;50.836;4.368;2022-11-30T16:49:18;60.15;;;32.97;;
35602;SDS011;21725;50.836;4.368;2022-11-30T16:51:45;58.00;;;30.65;;
35602;SDS011;21725;50.836;4.368;2022-11-30T16:54:12;49.70;;;27.02;;
35602;SDS011;21725;50.836;4.368;2022-11-30T16:56:39;58.90;;;30.23;;
35602;SDS011;21725;50.836;4.368;2022-11-30T16:59:05;59.90;;;31.48;;
35602;SDS011;21725;50.836;4.368;2022-11-30T17:01:32;53.53;;;30.10;;
35602;SDS011;21725;50.836;4.368;2022-11-30T17:24:29;69.68;;;34.08;;
35602;SDS011;21725;50.836;4.368;2022-11-30T17:26:58;66.07;;;34.83;;
35602;SDS011;21725;50.836;4.368;2022-11-30T17:29:31;65.55;;;35.08;;
35602;SDS011;21725;50.836;4.368;2022-11-30T17:31:57;71.47;;;37.70;;
35602;SDS011;21725;50.836;4.368;2022-11-30T17:34:23;68.03;;;36.45;;
35602;SDS011;21725;50.836;4.368;2022-11-30T17:36:52;72.55;;;40.22;;
35602;SDS011;21725;50.836;4.368;2022-11-30T17:39:41;55.78;;;29.73;;
35602;SDS011;21725;50.836;4.368;2022-11-30T17:42:17;64.22;;;36.45;;
35602;SDS011;21725;50.836;4.368;2022-11-30T17:44:48;66.43;;;38.47;;
35602;SDS011;21725;50.836;4.368;2022-11-30T17:47:23;58.08;;;34.47;;
35602;SDS011;21725;50.836;4.368;2022-11-30T17:50:02;61.05;;;35.78;;
35602;SDS011;21725;50.836;4.368;2022-11-30T17:52:33;62.70;;;38.33;;
35602;SDS011;21725;50.836;4.368;2022-11-30T17:55:01;66.97;;;36.28;;
35602;SDS011;21725;50.836;4.368;2022-11-30T17:57:31;65.07;;;37.75;;
35602;SDS011;21725;50.836;4.368;2022-11-30T17:59:57;49.03;;;28.63;;
35602;SDS011;21725;50.836;4.368;2022-11-30T18:02:23;61.58;;;35.42;;
35602;SDS011;21725;50.836;4.368;2022-11-30T18:04:55;58.67;;;34.72;;
35602;SDS011;21725;50.836;4.368;2022-11-30T18:07:26;67.70;;;35.67;;
35602;SDS011;21725;50.836;4.368;2022-11-30T18:09:57;61.58;;;35.75;;
35602;SDS011;21725;50.836;4.368;2022-11-30T18:12:25;66.72;;;37.35;;
35602;SDS011;21725;50.836;4.368;2022-11-30T18:14:57;46.38;;;27.35;;
35602;SDS011;21725;50.836;4.368;2022-11-30T18:17:49;65.03;;;34.45;;